sensor_id;sensor_type;location;lat;lon;timestamp;pressure;altitude;pressure_sealevel;temperature;humidity
63808;BME280;49961;43.970;22.868;2024-01-10T00:00:57;103363.53;;;-0.77;100.00
63808;BME280;49961;43.970;22.868;2024-01-10T00:01:58;103379.25;;;-0.69;100.00
63808;BME280;49961;43.970;22.868;2024-01-10T00:02:58;103379.00;;;-0.73;100.00
63808;BME280;49961;43.970;22.868;2024-01-10T00:03:59;103383.63;;;-0.73;100.00
63808;BME280;49961;43.970;22.868;2024-01-10T00:05:00;103378.78;;;-0.76;100.00
63808;BME280;49961;43.970;22.868;2024-01-10T00:06:00;103381.03;;;-0.83;100.00
63808;BME280;49961;43.970;22.868;2024-01-10T00:07:01;103312.06;;;-1.26;100.00
63808;BME280;49961;43.970;22.868;2024-01-10T00:08:01;103345.63;;;-1.07;100.00
63808;BME280;49961;43.970;22.868;2024-01-10T00:09:02;103374.91;;;-0.93;100.00
63808;BME280;49961;43.970;22.868;2024-01-10T00:10:03;103311.94;;;-1.39;100.00
63808;BME280;49961;43.970;22.868;2024-01-10T00:11:04;103360.13;;;-1.11;100.00
63808;BME280;49961;43.970;22.868;2024-01-10T00:12:05;103381.19;;;-0.98;100.00
63808;BME280;49961;43.970;22.868;2024-01-10T00:13:05;103377.66;;;-0.98;100.00
63808;BME280;49961;43.970;22.868;2024-01-10T00:14:06;103383.34;;;-0.95;100.00
63808;BME280;49961;43.970;22.868;2024-01-10T00:15:07;103348.75;;;-1.18;100.00
63808;BME280;49961;43.970;22.868;2024-01-10T00:16:07;103383.41;;;-1.00;100.00
63808;BME280;49961;43.970;22.868;2024-01-10T00:17:08;103380.44;;;-1.03;100.00
63808;BME280;49961;43.970;22.868;2024-01-10T00:18:08;103384.00;;;-1.08;100.00
63808;BME280;49961;43.970;22.868;2024-01-10T00:19:09;103389.19;;;-1.07;100.00
63808;BME280;49961;43.970;22.868;2024-01-10T00:20:10;103375.16;;;-1.18;100.00
63808;BME280;49961;43.970;22.868;2024-01-10T00:21:11;103197.88;;;-2.39;100.00
63808;BME280;49961;43.970;22.868;2024-01-10T00:22:11;103382.59;;;-1.29;100.00
63808;BME280;49961;43.970;22.868;2024-01-10T00:23:12;103386.19;;;-1.33;100.00
63808;BME280;49961;43.970;22.868;2024-01-10T00:24:12;103369.16;;;-1.49;100.00
63808;BME280;49961;43.970;22.868;2024-01-10T00:25:13;103383.00;;;-1.40;100.00
63808;BME280;49961;43.970;22.868;2024-01-10T00:26:13;103391.19;;;-1.45;100.00
63808;BME280;49961;43.970;22.868;2024-01-10T00:27:15;103406.72;;;-1.51;100.00
63808;BME280;49961;43.970;22.868;2024-01-10T00:28:16;103378.44;;;-1.50;100.00
63808;BME280;49961;43.970;22.868;2024-01-10T00:29:19;103386.88;;;-1.52;100.00
63808;BME280;49961;43.970;22.868;2024-01-10T00:30:19;103384.50;;;-1.58;100.00
63808;BME280;49961;43.970;22.868;2024-01-10T00:31:20;103382.06;;;-1.59;100.00
63808;BME280;49961;43.970;22.868;2024-01-10T00:32:20;103386.66;;;-1.60;100.00
63808;BME280;49961;43.970;22.868;2024-01-10T00:33:21;103294.41;;;-2.18;100.00
63808;BME280;49961;43.970;22.868;2024-01-10T00:34:21;103373.69;;;-1.68;100.00
63808;BME280;49961;43.970;22.868;2024-01-10T00:35:22;103290.63;;;-2.17;100.00
63808;BME280;49961;43.970;22.868;2024-01-10T00:36:22;103349.84;;;-1.81;100.00
63808;BME280;49961;43.970;22.868;2024-01-10T00:37:23;103382.38;;;-1.66;100.00
63808;BME280;49961;43.970;22.868;2024-01-10T00:38:23;103180.06;;;-2.94;100.00
63808;BME280;49961;43.970;22.868;2024-01-10T00:39:24;103280.97;;;-2.38;100.00
63808;BME280;49961;43.970;22.868;2024-01-10T00:40:24;103387.88;;;-1.76;100.00
63808;BME280;49961;43.970;22.868;2024-01-10T00:41:25;103356.03;;;-2.04;100.00
63808;BME280;49961;43.970;22.868;2024-01-10T00:42:25;103375.50;;;-1.92;100.00
63808;BME280;49961;43.970;22.868;2024-01-10T00:43:26;103378.53;;;-1.98;100.00
63808;BME280;49961;43.970;22.868;2024-01-10T00:44:26;103378.00;;;-2.00;100.00
63808;BME280;49961;43.970;22.868;2024-01-10T00:45:27;103274.44;;;-2.76;100.00
63808;BME280;49961;43.970;22.868;2024-01-10T00:46:27;103377.50;;;-2.13;100.00
63808;BME280;49961;43.970;22.868;2024-01-10T00:47:28;103381.94;;;-2.21;100.00
63808;BME280;49961;43.970;22.868;2024-01-10T00:48:29;103379.00;;;-2.30;100.00
63808;BME280;49961;43.970;22.868;2024-01-10T00:49:29;103356.03;;;-2.52;100.00
63808;BME280;49961;43.970;22.868;2024-01-10T00:50:29;103351.13;;;-2.55;100.00
63808;BME280;49961;43.970;22.868;2024-01-10T00:51:30;103376.06;;;-2.48;100.00
63808;BME280;49961;43.970;22.868;2024-01-10T00:52:30;103374.47;;;-2.54;100.00
63808;BME280;49961;43.970;22.868;2024-01-10T00:53:31;103370.41;;;-2.52;100.00
63808;BME280;49961;43.970;22.868;2024-01-10T00:54:31;103372.56;;;-2.49;100.00
63808;BME280;49961;43.970;22.868;2024-01-10T00:55:32;103356.81;;;-2.52;100.00
63808;BME280;49961;43.970;22.868;2024-01-10T00:56:32;103372.78;;;-2.40;100.00
63808;BME280;49961;43.970;22.868;2024-01-10T00:57:33;103339.19;;;-2.59;100.00
63808;BME280;49961;43.970;22.868;2024-01-10T00:58:35;103353.50;;;-2.39;100.00
63808;BME280;49961;43.970;22.868;2024-01-10T00:59:35;103346.47;;;-2.45;100.00
63808;BME280;49961;43.970;22.868;2024-01-10T01:00:36;103317.19;;;-2.53;100.00
63808;BME280;49961;43.970;22.868;2024-01-10T01:01:37;103373.72;;;-2.11;100.00
63808;BME280;49961;43.970;22.868;2024-01-10T01:02:37;103373.97;;;-2.08;100.00
63808;BME280;49961;43.970;22.868;2024-01-10T01:03:39;103341.75;;;-2.29;100.00
63808;BME280;49961;43.970;22.868;2024-01-10T01:04:40;103368.53;;;-2.08;100.00
63808;BME280;49961;43.970;22.868;2024-01-10T01:05:40;103370.44;;;-2.08;100.00
63808;BME280;49961;43.970;22.868;2024-01-10T01:06:41;103372.06;;;-2.13;100.00
63808;BME280;49961;43.970;22.868;2024-01-10T01:07:41;103366.13;;;-2.14;100.00
63808;BME280;49961;43.970;22.868;2024-01-10T01:08:42;103370.47;;;-2.13;100.00
63808;BME280;49961;43.970;22.868;2024-01-10T01:09:42;103358.34;;;-2.31;100.00
63808;BME280;49961;43.970;22.868;2024-01-10T01:10:43;103370.53;;;-2.23;100.00
63808;BME280;49961;43.970;22.868;2024-01-10T01:11:43;103370.81;;;-2.25;100.00
63808;BME280;49961;43.970;22.868;2024-01-10T01:12:44;103289.88;;;-2.76;100.00
63808;BME280;49961;43.970;22.868;2024-01-10T01:13:44;103337.59;;;-2.65;100.00
63808;BME280;49961;43.970;22.868;2024-01-10T01:14:45;103363.78;;;-2.31;100.00
63808;BME280;49961;43.970;22.868;2024-01-10T01:15:46;103363.53;;;-2.34;100.00
63808;BME280;49961;43.970;22.868;2024-01-10T01:16:46;103365.97;;;-2.33;100.00
63808;BME280;49961;43.970;22.868;2024-01-10T01:17:47;103367.59;;;-2.32;100.00
63808;BME280;49961;43.970;22.868;2024-01-10T01:18:47;103365.97;;;-2.33;100.00
63808;BME280;49961;43.970;22.868;2024-01-10T01:19:48;103327.78;;;-2.51;100.00
63808;BME280;49961;43.970;22.868;2024-01-10T01:20:49;103356.72;;;-2.32;100.00
63808;BME280;49961;43.970;22.868;2024-01-10T01:21:50;103355.09;;;-2.33;100.00
63808;BME280;49961;43.970;22.868;2024-01-10T01:22:50;103360.25;;;-2.31;100.00
63808;BME280;49961;43.970;22.868;2024-01-10T01:23:51;103351.06;;;-2.40;100.00
63808;BME280;49961;43.970;22.868;2024-01-10T01:24:52;103355.13;;;-2.38;100.00
63808;BME280;49961;43.970;22.868;2024-01-10T01:25:52;103362.44;;;-2.38;100.00
63808;BME280;49961;43.970;22.868;2024-01-10T01:26:53;103359.47;;;-2.42;100.00
63808;BME280;49961;43.970;22.868;2024-01-10T01:27:53;103356.81;;;-2.52;100.00
63808;BME280;49961;43.970;22.868;2024-01-10T01:28:54;103351.66;;;-2.53;100.00
63808;BME280;49961;43.970;22.868;2024-01-10T01:29:54;103354.94;;;-2.56;100.00
63808;BME280;49961;43.970;22.868;2024-01-10T01:30:55;103277.56;;;-3.17;100.00
63808;BME280;49961;43.970;22.868;2024-01-10T01:31:55;103347.06;;;-2.58;100.00
63808;BME280;49961;43.970;22.868;2024-01-10T01:32:56;103332.75;;;-2.68;100.00
63808;BME280;49961;43.970;22.868;2024-01-10T01:33:56;103362.28;;;-2.57;100.00
63808;BME280;49961;43.970;22.868;2024-01-10T01:34:57;103345.25;;;-2.72;100.00
63808;BME280;49961;43.970;22.868;2024-01-10T01:35:58;103362.31;;;-2.72;100.00
63808;BME280;49961;43.970;22.868;2024-01-10T01:36:59;103361.28;;;-2.81;100.00
63808;BME280;49961;43.970;22.868;2024-01-10T01:38:01;103363.72;;;-2.84;100.00
63808;BME280;49961;43.970;22.868;2024-01-10T01:39:01;103362.66;;;-2.83;100.00
63808;BME280;49961;43.970;22.868;2024-01-10T01:40:02;103365.09;;;-2.87;100.00
63808;BME280;49961;43.970;22.868;2024-01-10T01:41:03;103361.00;;;-2.84;100.00
63808;BME280;49961;43.970;22.868;2024-01-10T01:42:04;103353.97;;;-2.90;100.00
63808;BME280;49961;43.970;22.868;2024-01-10T01:43:23;103358.59;;;-2.86;100.00
63808;BME280;49961;43.970;22.868;2024-01-10T01:44:24;103357.25;;;-2.83;100.00
63808;BME280;49961;43.970;22.868;2024-01-10T01:45:24;103297.41;;;-3.27;100.00
63808;BME280;49961;43.970;22.868;2024-01-10T01:46:25;103283.03;;;-3.27;100.00
63808;BME280;49961;43.970;22.868;2024-01-10T01:47:26;103358.59;;;-2.81;100.00
63808;BME280;49961;43.970;22.868;2024-01-10T01:48:27;103353.69;;;-2.84;100.00
63808;BME280;49961;43.970;22.868;2024-01-10T01:49:28;103354.78;;;-2.85;100.00
63808;BME280;49961;43.970;22.868;2024-01-10T01:50:29;103354.53;;;-2.88;100.00
63808;BME280;49961;43.970;22.868;2024-01-10T01:51:30;103348.56;;;-2.95;100.00
63808;BME280;49961;43.970;22.868;2024-01-10T01:52:32;103350.47;;;-2.86;100.00
63808;BME280;49961;43.970;22.868;2024-01-10T01:53:35;103350.19;;;-2.89;100.00
63808;BME280;49961;43.970;22.868;2024-01-10T01:54:36;103262.47;;;-3.53;100.00
63808;BME280;49961;43.970;22.868;2024-01-10T01:55:37;103357.78;;;-2.91;100.00
63808;BME280;49961;43.970;22.868;2024-01-10T01:56:38;103273.56;;;-3.40;100.00
63808;BME280;49961;43.970;22.868;2024-01-10T01:57:39;103182.09;;;-3.93;100.00
63808;BME280;49961;43.970;22.868;2024-01-10T01:58:40;103331.50;;;-3.01;100.00
63808;BME280;49961;43.970;22.868;2024-01-10T01:59:40;103340.69;;;-2.97;100.00
63808;BME280;49961;43.970;22.868;2024-01-10T02:00:41;103343.41;;;-2.97;100.00
63808;BME280;49961;43.970;22.868;2024-01-10T02:01:43;103348.31;;;-2.99;100.00
63808;BME280;49961;43.970;22.868;2024-01-10T02:02:44;103348.31;;;-2.99;100.00
63808;BME280;49961;43.970;22.868;2024-01-10T02:03:45;103324.19;;;-3.05;100.00
63808;BME280;49961;43.970;22.868;2024-01-10T02:04:46;103333.91;;;-2.94;100.00
63808;BME280;49961;43.970;22.868;2024-01-10T02:05:47;103315.81;;;-3.14;100.00
63808;BME280;49961;43.970;22.868;2024-01-10T02:06:48;103317.94;;;-2.96;100.00
63808;BME280;49961;43.970;22.868;2024-01-10T02:07:48;103271.09;;;-3.26;100.00
63808;BME280;49961;43.970;22.868;2024-01-10T02:08:49;103071.16;;;-4.43;100.00
63808;BME280;49961;43.970;22.868;2024-01-10T02:09:49;103335.78;;;-2.85;100.00
63808;BME280;49961;43.970;22.868;2024-01-10T02:10:50;103327.63;;;-2.80;100.00
63808;BME280;49961;43.970;22.868;2024-01-10T02:11:51;103270.50;;;-3.13;100.00
63808;BME280;49961;43.970;22.868;2024-01-10T02:12:52;103247.25;;;-3.29;100.00
63808;BME280;49961;43.970;22.868;2024-01-10T02:13:53;103329.25;;;-2.79;100.00
63808;BME280;49961;43.970;22.868;2024-01-10T02:14:56;103142.25;;;-3.92;100.00
63808;BME280;49961;43.970;22.868;2024-01-10T02:15:57;103236.72;;;-3.46;100.00
63808;BME280;49961;43.970;22.868;2024-01-10T02:16:58;103162.53;;;-3.75;100.00
63808;BME280;49961;43.970;22.868;2024-01-10T02:17:59;103322.47;;;-2.76;100.00
63808;BME280;49961;43.970;22.868;2024-01-10T02:18:59;103291.59;;;-2.95;100.00
63808;BME280;49961;43.970;22.868;2024-01-10T02:20:08;103322.97;;;-2.74;100.00
63808;BME280;49961;43.970;22.868;2024-01-10T02:21:09;103319.50;;;-2.80;100.00
63808;BME280;49961;43.970;22.868;2024-01-10T02:22:09;103238.56;;;-3.31;100.00
63808;BME280;49961;43.970;22.868;2024-01-10T02:23:11;103319.75;;;-2.76;100.00
63808;BME280;49961;43.970;22.868;2024-01-10T02:24:12;103319.75;;;-2.81;100.00
63808;BME280;49961;43.970;22.868;2024-01-10T02:25:13;103314.34;;;-2.81;100.00
63808;BME280;49961;43.970;22.868;2024-01-10T02:26:15;103320.28;;;-2.79;100.00
63808;BME280;49961;43.970;22.868;2024-01-10T02:27:15;103320.00;;;-2.78;100.00
63808;BME280;49961;43.970;22.868;2024-01-10T02:28:16;103296.47;;;-2.92;100.00
63808;BME280;49961;43.970;22.868;2024-01-10T02:29:16;103317.56;;;-2.79;100.00
63808;BME280;49961;43.970;22.868;2024-01-10T02:30:17;103270.75;;;-3.05;100.00
63808;BME280;49961;43.970;22.868;2024-01-10T02:31:17;103319.75;;;-2.76;100.00
63808;BME280;49961;43.970;22.868;2024-01-10T02:32:18;103316.22;;;-2.82;100.00
63808;BME280;49961;43.970;22.868;2024-01-10T02:33:18;103223.69;;;-3.49;100.00
63808;BME280;49961;43.970;22.868;2024-01-10T02:34:19;103320.88;;;-2.87;100.00
63808;BME280;49961;43.970;22.868;2024-01-10T02:35:19;103312.19;;;-2.89;100.00
63808;BME280;49961;43.970;22.868;2024-01-10T02:36:20;103263.56;;;-3.49;100.00
63808;BME280;49961;43.970;22.868;2024-01-10T02:37:20;103320.31;;;-2.84;100.00
63808;BME280;49961;43.970;22.868;2024-01-10T02:38:21;103304.88;;;-2.89;100.00
63808;BME280;49961;43.970;22.868;2024-01-10T02:39:23;103316.53;;;-2.83;100.00
63808;BME280;49961;43.970;22.868;2024-01-10T02:40:24;103314.34;;;-2.86;100.00
63808;BME280;49961;43.970;22.868;2024-01-10T02:41:24;103320.06;;;-2.88;100.00
63808;BME280;49961;43.970;22.868;2024-01-10T02:42:27;103309.22;;;-2.93;100.00
63808;BME280;49961;43.970;22.868;2024-01-10T02:43:28;103314.13;;;-3.00;100.00
63808;BME280;49961;43.970;22.868;2024-01-10T02:44:28;103285.19;;;-3.19;100.00
63808;BME280;49961;43.970;22.868;2024-01-10T02:45:29;103307.13;;;-3.11;100.00
63808;BME280;49961;43.970;22.868;2024-01-10T02:46:29;103309.00;;;-3.11;100.00
63808;BME280;49961;43.970;22.868;2024-01-10T02:47:29;103311.47;;;-3.15;100.00
63808;BME280;49961;43.970;22.868;2024-01-10T02:48:30;103306.31;;;-3.16;100.00
63808;BME280;49961;43.970;22.868;2024-01-10T02:49:31;103313.66;;;-3.22;100.00
63808;BME280;49961;43.970;22.868;2024-01-10T02:50:31;103309.59;;;-3.24;100.00
63808;BME280;49961;43.970;22.868;2024-01-10T02:51:32;103312.31;;;-3.24;100.00
63808;BME280;49961;43.970;22.868;2024-01-10T02:52:32;103308.78;;;-3.30;100.00
63808;BME280;49961;43.970;22.868;2024-01-10T02:53:33;103331.34;;;-3.39;100.00
63808;BME280;49961;43.970;22.868;2024-01-10T02:54:33;103290.44;;;-3.58;100.00
63808;BME280;49961;43.970;22.868;2024-01-10T02:55:34;103285.81;;;-3.72;100.00
63808;BME280;49961;43.970;22.868;2024-01-10T02:56:34;103302.31;;;-3.59;100.00
63808;BME280;49961;43.970;22.868;2024-01-10T02:57:35;103139.34;;;-4.61;100.00
63808;BME280;49961;43.970;22.868;2024-01-10T02:58:35;103299.63;;;-3.64;100.00
63808;BME280;49961;43.970;22.868;2024-01-10T02:59:36;103293.16;;;-3.68;100.00
63808;BME280;49961;43.970;22.868;2024-01-10T03:00:36;103302.88;;;-3.62;100.00
63808;BME280;49961;43.970;22.868;2024-01-10T03:01:37;103299.91;;;-3.60;100.00
63808;BME280;49961;43.970;22.868;2024-01-10T03:02:38;103292.06;;;-3.62;100.00
63808;BME280;49961;43.970;22.868;2024-01-10T03:03:38;103241.13;;;-3.95;100.00
63808;BME280;49961;43.970;22.868;2024-01-10T03:04:39;103261.69;;;-3.79;100.00
63808;BME280;49961;43.970;22.868;2024-01-10T03:05:40;103291.22;;;-3.62;100.00
63808;BME280;49961;43.970;22.868;2024-01-10T03:06:40;103282.31;;;-3.68;100.00
63808;BME280;49961;43.970;22.868;2024-01-10T03:07:41;103291.22;;;-3.57;100.00
63808;BME280;49961;43.970;22.868;2024-01-10T03:08:41;103299.91;;;-3.55;100.00
63808;BME280;49961;43.970;22.868;2024-01-10T03:09:42;103297.19;;;-3.50;100.00
63808;BME280;49961;43.970;22.868;2024-01-10T03:10:43;103289.06;;;-3.50;100.00
63808;BME280;49961;43.970;22.868;2024-01-10T03:11:43;103190.50;;;-4.14;100.00
63808;BME280;49961;43.970;22.868;2024-01-10T03:12:44;103286.06;;;-3.64;100.00
63808;BME280;49961;43.970;22.868;2024-01-10T03:13:46;103180.75;;;-4.55;100.00
63808;BME280;49961;43.970;22.868;2024-01-10T03:14:46;103258.47;;;-3.96;100.00
63808;BME280;49961;43.970;22.868;2024-01-10T03:15:47;103287.44;;;-3.81;100.00
63808;BME280;49961;43.970;22.868;2024-01-10T03:16:47;103294.50;;;-3.80;100.00
63808;BME280;49961;43.970;22.868;2024-01-10T03:17:48;103295.03;;;-3.73;100.00
63808;BME280;49961;43.970;22.868;2024-01-10T03:18:49;103293.94;;;-3.82;100.00
63808;BME280;49961;43.970;22.868;2024-01-10T03:19:49;103288.25;;;-3.76;100.00
63808;BME280;49961;43.970;22.868;2024-01-10T03:20:50;103285.81;;;-3.72;100.00
63808;BME280;49961;43.970;22.868;2024-01-10T03:21:50;103291.25;;;-3.82;100.00
63808;BME280;49961;43.970;22.868;2024-01-10T03:22:51;103246.53;;;-4.20;100.00
63808;BME280;49961;43.970;22.868;2024-01-10T03:24:01;103294.50;;;-3.95;100.00
63808;BME280;49961;43.970;22.868;2024-01-10T03:25:02;103295.88;;;-4.03;100.00
63808;BME280;49961;43.970;22.868;2024-01-10T03:26:03;103250.63;;;-4.32;100.00
63808;BME280;49961;43.970;22.868;2024-01-10T03:27:04;103271.47;;;-4.18;100.00
63808;BME280;49961;43.970;22.868;2024-01-10T03:28:05;103284.75;;;-4.11;100.00
63808;BME280;49961;43.970;22.868;2024-01-10T03:29:05;103285.03;;;-4.13;100.00
63808;BME280;49961;43.970;22.868;2024-01-10T03:30:06;103316.69;;;-4.13;100.00
63808;BME280;49961;43.970;22.868;2024-01-10T03:31:07;103282.06;;;-4.11;100.00
63808;BME280;49961;43.970;22.868;2024-01-10T03:32:07;103286.63;;;-4.07;100.00
63808;BME280;49961;43.970;22.868;2024-01-10T03:33:08;103119.56;;;-5.01;100.00
63808;BME280;49961;43.970;22.868;2024-01-10T03:34:08;103292.34;;;-3.98;100.00
63808;BME280;49961;43.970;22.868;2024-01-10T03:35:09;103283.13;;;-3.97;100.00
63808;BME280;49961;43.970;22.868;2024-01-10T03:36:12;103284.19;;;-3.93;100.00
63808;BME280;49961;43.970;22.868;2024-01-10T03:37:13;103243.31;;;-4.17;100.00
63808;BME280;49961;43.970;22.868;2024-01-10T03:38:14;103189.69;;;-4.55;100.00
63808;BME280;49961;43.970;22.868;2024-01-10T03:39:16;103283.13;;;-3.92;100.00
63808;BME280;49961;43.970;22.868;2024-01-10T03:40:16;103198.63;;;-4.54;100.00
63808;BME280;49961;43.970;22.868;2024-01-10T03:41:18;103282.59;;;-3.99;100.00
63808;BME280;49961;43.970;22.868;2024-01-10T03:42:19;103276.63;;;-4.11;100.00
63808;BME280;49961;43.970;22.868;2024-01-10T03:43:19;103278.25;;;-4.05;100.00
63808;BME280;49961;43.970;22.868;2024-01-10T03:44:20;103278.53;;;-3.97;100.00
63808;BME280;49961;43.970;22.868;2024-01-10T03:45:20;103280.69;;;-3.94;100.00
63808;BME280;49961;43.970;22.868;2024-01-10T03:46:23;103279.59;;;-3.93;100.00
63808;BME280;49961;43.970;22.868;2024-01-10T03:47:23;103283.13;;;-3.87;100.00
63808;BME280;49961;43.970;22.868;2024-01-10T03:48:24;103189.41;;;-4.48;100.00
63808;BME280;49961;43.970;22.868;2024-01-10T03:49:24;103272.00;;;-3.81;100.00
63808;BME280;49961;43.970;22.868;2024-01-10T03:50:25;103277.44;;;-3.81;100.00
63808;BME280;49961;43.970;22.868;2024-01-10T03:51:26;103272.28;;;-3.82;100.00
63808;BME280;49961;43.970;22.868;2024-01-10T03:52:26;103146.94;;;-4.63;100.00
63808;BME280;49961;43.970;22.868;2024-01-10T03:53:27;103105.81;;;-4.85;100.00
63808;BME280;49961;43.970;22.868;2024-01-10T03:54:27;103268.47;;;-3.76;100.00
63808;BME280;49961;43.970;22.868;2024-01-10T03:55:28;103270.91;;;-3.80;100.00
63808;BME280;49961;43.970;22.868;2024-01-10T03:56:28;103265.75;;;-3.81;100.00
63808;BME280;49961;43.970;22.868;2024-01-10T03:57:29;103270.38;;;-3.77;100.00
63808;BME280;49961;43.970;22.868;2024-01-10T03:58:29;103267.41;;;-3.75;100.00
63808;BME280;49961;43.970;22.868;2024-01-10T03:59:30;103273.63;;;-3.75;100.00
63808;BME280;49961;43.970;22.868;2024-01-10T04:00:30;103277.69;;;-3.77;100.00
63808;BME280;49961;43.970;22.868;2024-01-10T04:01:31;103270.13;;;-3.75;100.00
63808;BME280;49961;43.970;22.868;2024-01-10T04:02:32;103270.13;;;-3.75;100.00
63808;BME280;49961;43.970;22.868;2024-01-10T04:03:32;103275.53;;;-3.75;100.00
63808;BME280;49961;43.970;22.868;2024-01-10T04:04:37;103117.97;;;-4.82;100.00
63808;BME280;49961;43.970;22.868;2024-01-10T04:05:37;103178.88;;;-4.35;100.00
63808;BME280;49961;43.970;22.868;2024-01-10T04:06:38;103269.81;;;-3.79;100.00
63808;BME280;49961;43.970;22.868;2024-01-10T04:07:42;103268.22;;;-3.80;100.00
63808;BME280;49961;43.970;22.868;2024-01-10T04:08:43;103293.69;;;-3.81;100.00
63808;BME280;49961;43.970;22.868;2024-01-10T04:09:44;103204.03;;;-4.19;100.00
63808;BME280;49961;43.970;22.868;2024-01-10T04:10:44;103266.84;;;-3.82;100.00
63808;BME280;49961;43.970;22.868;2024-01-10T04:11:45;103265.50;;;-3.90;100.00
63808;BME280;49961;43.970;22.868;2024-01-10T04:12:46;103276.63;;;-3.91;100.00
63808;BME280;49961;43.970;22.868;2024-01-10T04:13:46;103076.28;;;-5.11;100.00
63808;BME280;49961;43.970;22.868;2024-01-10T04:14:47;103260.91;;;-3.94;100.00
63808;BME280;49961;43.970;22.868;2024-01-10T04:15:47;103259.03;;;-4.04;100.00
63808;BME280;49961;43.970;22.868;2024-01-10T04:16:48;103264.16;;;-3.92;100.00
63808;BME280;49961;43.970;22.868;2024-01-10T04:17:48;103263.09;;;-3.86;100.00
63808;BME280;49961;43.970;22.868;2024-01-10T04:18:49;103273.63;;;-3.85;100.00
63808;BME280;49961;43.970;22.868;2024-01-10T04:19:49;103270.66;;;-3.83;100.00
63808;BME280;49961;43.970;22.868;2024-01-10T04:20:50;103272.56;;;-3.84;100.00
63808;BME280;49961;43.970;22.868;2024-01-10T04:21:50;103275.00;;;-3.87;100.00
63808;BME280;49961;43.970;22.868;2024-01-10T04:22:51;103268.78;;;-3.93;100.00
63808;BME280;49961;43.970;22.868;2024-01-10T04:23:51;103273.63;;;-3.90;100.00
63808;BME280;49961;43.970;22.868;2024-01-10T04:24:52;103278.78;;;-3.93;100.00
63808;BME280;49961;43.970;22.868;2024-01-10T04:25:52;103274.47;;;-3.94;100.00
63808;BME280;49961;43.970;22.868;2024-01-10T04:26:54;103275.00;;;-3.97;100.00
63808;BME280;49961;43.970;22.868;2024-01-10T04:27:54;103245.19;;;-4.17;100.00
63808;BME280;49961;43.970;22.868;2024-01-10T04:28:56;103280.41;;;-4.02;100.00
63808;BME280;49961;43.970;22.868;2024-01-10T04:29:56;103259.81;;;-4.18;100.00
63808;BME280;49961;43.970;22.868;2024-01-10T04:30:57;103282.84;;;-4.11;100.00
63808;BME280;49961;43.970;22.868;2024-01-10T04:31:57;103275.28;;;-4.09;100.00
63808;BME280;49961;43.970;22.868;2024-01-10T04:32:58;103182.91;;;-4.77;100.00
63808;BME280;49961;43.970;22.868;2024-01-10T04:33:58;103279.03;;;-4.15;100.00
63808;BME280;49961;43.970;22.868;2024-01-10T04:34:59;103284.19;;;-4.13;100.00
63808;BME280;49961;43.970;22.868;2024-01-10T04:35:59;103185.34;;;-4.76;100.00
63808;BME280;49961;43.970;22.868;2024-01-10T04:37:00;103281.75;;;-4.10;100.00
63808;BME280;49961;43.970;22.868;2024-01-10T04:38:01;103115.75;;;-5.10;100.00
63808;BME280;49961;43.970;22.868;2024-01-10T04:39:01;103289.09;;;-4.05;100.00
63808;BME280;49961;43.970;22.868;2024-01-10T04:40:02;103288.00;;;-4.04;100.00
63808;BME280;49961;43.970;22.868;2024-01-10T04:41:02;103263.09;;;-4.21;100.00
63808;BME280;49961;43.970;22.868;2024-01-10T04:42:03;103298.56;;;-4.08;100.00
63808;BME280;49961;43.970;22.868;2024-01-10T04:43:04;103270.91;;;-4.25;100.00
63808;BME280;49961;43.970;22.868;2024-01-10T04:44:05;103254.94;;;-4.36;100.00
63808;BME280;49961;43.970;22.868;2024-01-10T04:45:06;103299.34;;;-4.17;100.00
63808;BME280;49961;43.970;22.868;2024-01-10T04:46:07;103079.44;;;-5.54;100.00
63808;BME280;49961;43.970;22.868;2024-01-10T04:47:10;103296.13;;;-4.19;100.00
63808;BME280;49961;43.970;22.868;2024-01-10T04:48:11;103315.88;;;-4.24;100.00
63808;BME280;49961;43.970;22.868;2024-01-10T04:49:11;103297.97;;;-4.25;100.00
63808;BME280;49961;43.970;22.868;2024-01-10T04:50:12;103269.56;;;-4.47;100.00
63808;BME280;49961;43.970;22.868;2024-01-10T04:51:12;103302.31;;;-4.34;100.00
63808;BME280;49961;43.970;22.868;2024-01-10T04:52:14;103300.41;;;-4.33;100.00
63808;BME280;49961;43.970;22.868;2024-01-10T04:53:15;103303.69;;;-4.36;100.00
63808;BME280;49961;43.970;22.868;2024-01-10T04:54:15;103250.25;;;-4.81;100.00
63808;BME280;49961;43.970;22.868;2024-01-10T04:55:16;103297.69;;;-4.38;100.00
63808;BME280;49961;43.970;22.868;2024-01-10T04:56:17;103303.69;;;-4.36;100.00
63808;BME280;49961;43.970;22.868;2024-01-10T04:57:18;103299.88;;;-4.40;100.00
63808;BME280;49961;43.970;22.868;2024-01-10T04:58:18;103296.63;;;-4.42;100.00
63808;BME280;49961;43.970;22.868;2024-01-10T04:59:19;103292.56;;;-4.45;100.00
63808;BME280;49961;43.970;22.868;2024-01-10T05:00:19;103292.56;;;-4.45;100.00
63808;BME280;49961;43.970;22.868;2024-01-10T05:01:20;103322.84;;;-4.48;100.00
63808;BME280;49961;43.970;22.868;2024-01-10T05:02:21;103220.47;;;-4.96;100.00
63808;BME280;49961;43.970;22.868;2024-01-10T05:03:21;103285.78;;;-4.52;100.00
63808;BME280;49961;43.970;22.868;2024-01-10T05:04:22;103302.28;;;-4.49;100.00
63808;BME280;49961;43.970;22.868;2024-01-10T05:05:22;103219.38;;;-4.95;100.00
63808;BME280;49961;43.970;22.868;2024-01-10T05:06:24;103298.25;;;-4.46;100.00
63808;BME280;49961;43.970;22.868;2024-01-10T05:07:24;103296.34;;;-4.41;100.00
63808;BME280;49961;43.970;22.868;2024-01-10T05:08:25;103304.47;;;-4.41;100.00
63808;BME280;49961;43.970;22.868;2024-01-10T05:09:26;103297.16;;;-4.45;100.00
63808;BME280;49961;43.970;22.868;2024-01-10T05:10:27;103260.81;;;-4.69;100.00